Time;durP1;ratioP1;P1;durP2;ratioP2;P2;SDS_P1;SDS_P2;PMS_P1;PMS_P2;Temp;Humidity;BMP_temperature;BMP_pressure;BME280_temperature;BME280_humidity;BME280_pressure;Samples;Min_cycle;Max_cycle;Signal;HPM_P1;HPM_P2
2022/04/13 00:00:30;;;;;;;1.42;1.33;;;20.00;46.70;;;;;;5151317;27;44487;-60
2022/04/13 00:02:58;;;;;;;1.77;1.50;;;20.00;46.60;;;;;;5145491;27;43547;-59
2022/04/13 00:05:27;;;;;;;2.22;1.80;;;20.00;46.70;;;;;;5152188;27;43507;-60
2022/04/13 00:07:55;;;;;;;1.83;1.73;;;20.00;46.90;;;;;;5152370;27;43426;-59
2022/04/13 00:10:23;;;;;;;1.63;1.52;;;20.00;46.80;;;;;;5148423;27;43783;-60
2022/04/13 00:12:50;;;;;;;1.63;1.52;;;20.00;46.80;;;;;;5152204;27;43682;-60
2022/04/13 00:15:18;;;;;;;1.80;1.70;;;19.90;46.80;;;;;;5151599;27;43476;-59
2022/04/13 00:17:45;;;;;;;1.42;1.33;;;19.90;46.80;;;;;;5144286;27;43501;-59
2022/04/13 00:20:13;;;;;;;1.60;1.50;;;19.90;46.70;;;;;;5148063;27;44687;-59
2022/04/13 00:22:40;;;;;;;1.90;1.80;;;19.90;46.70;;;;;;5151768;27;43604;-61
2022/04/13 00:25:08;;;;;;;1.80;1.70;;;19.90;46.80;;;;;;5151667;27;43510;-58
2022/04/13 00:27:36;;;;;;;1.60;1.50;;;19.90;46.80;;;;;;5143790;27;43436;-59
2022/04/13 00:30:04;;;;;;;1.65;1.55;;;19.90;46.80;;;;;;5129509;27;43783;-60
2022/04/13 00:32:33;;;;;;;1.88;1.77;;;19.90;46.70;;;;;;5151572;27;43672;-60
2022/04/13 00:35:04;;;;;;;1.70;1.60;;;19.80;46.80;;;;;;5146982;27;43472;-59
2022/04/13 00:37:33;;;;;;;1.90;1.80;;;19.90;46.70;;;;;;5151981;27;43436;-59
2022/04/13 00:40:00;;;;;;;1.80;1.70;;;19.80;46.70;;;;;;5151768;27;45062;-60
2022/04/13 00:42:29;;;;;;;1.80;1.70;;;19.90;46.80;;;;;;5149761;27;43982;-60
2022/04/13 00:44:56;;;;;;;1.95;1.75;;;19.90;46.70;;;;;;5147277;27;43456;-60
2022/04/13 00:47:25;;;;;;;1.70;1.60;;;19.80;46.70;;;;;;5148420;27;43499;-60
2022/04/13 00:49:54;;;;;;;1.40;1.40;;;19.80;46.70;;;;;;5148000;27;44984;-60
2022/04/13 00:52:25;;;;;;;1.63;1.50;;;19.80;46.80;;;;;;5148125;27;44032;-60
2022/04/13 00:54:53;;;;;;;;;;;19.80;46.70;;;;;;5148323;27;43501;-60
2022/04/13 00:57:22;;;;;;;1.50;1.40;;;19.80;46.70;;;;;;5148167;27;43443;-59
2022/04/13 00:59:53;;;;;;;1.60;1.50;;;19.80;46.80;;;;;;5147961;27;44078;-60
2022/04/13 01:02:21;;;;;;;;;;;19.80;46.80;;;;;;5148402;27;43445;-59
2022/04/13 01:04:50;;;;;;;2.08;1.75;;;19.80;46.80;;;;;;5147921;27;43551;-60
2022/04/13 01:07:18;;;;;;;1.45;1.35;;;19.80;46.70;;;;;;5148144;27;43577;-60
2022/04/13 01:09:46;;;;;;;1.38;1.30;;;19.80;46.70;;;;;;5147943;27;44688;-60
2022/04/13 01:12:14;;;;;;;1.73;1.40;;;19.80;46.70;;;;;;5147962;27;43994;-60
2022/04/13 01:14:41;;;;;;;1.70;1.58;;;19.80;46.80;;;;;;5147543;27;43360;-60
2022/04/13 01:17:09;;;;;;;1.67;1.58;;;19.80;46.80;;;;;;5144673;27;43434;-60
2022/04/13 01:19:39;;;;;;;1.33;1.30;;;19.70;46.70;;;;;;5146997;27;44222;-60
2022/04/13 01:22:20;;;;;;;1.50;1.40;;;19.70;47.40;;;;;;5147720;27;43399;-60
2022/04/13 01:24:49;;;;;;;1.35;1.33;;;19.70;46.70;;;;;;5144761;27;43458;-59
2022/04/13 01:27:17;;;;;;;1.38;1.27;;;19.70;46.70;;;;;;5147570;27;43451;-59
2022/04/13 01:29:46;;;;;;;1.40;1.30;;;19.70;46.70;;;;;;5147133;27;43861;-60
2022/04/13 01:32:14;;;;;;;2.53;1.50;;;19.70;46.70;;;;;;5147626;27;43972;-60
2022/04/13 01:34:51;;;;;;;1.40;1.30;;;19.70;46.80;;;;;;5147419;27;43392;-60
2022/04/13 01:37:19;;;;;;;1.58;1.20;;;19.70;46.80;;;;;;5147607;27;43473;-60
2022/04/13 01:39:47;;;;;;;1.52;1.42;;;19.60;46.70;;;;;;5147550;27;43793;-61
2022/04/13 01:42:14;;;;;;;1.65;1.55;;;19.60;46.80;;;;;;5147234;27;43646;-60
2022/04/13 01:44:45;;;;;;;1.35;1.25;;;19.60;46.80;;;;;;5146875;27;43520;-60
2022/04/13 01:47:12;;;;;;;1.40;1.30;;;19.60;46.90;;;;;;5147360;27;43468;-59
2022/04/13 01:49:41;;;;;;;1.50;1.40;;;19.60;46.80;;;;;;5147205;27;44633;-59
2022/04/13 01:52:09;;;;;;;1.58;1.48;;;19.60;46.80;;;;;;5147134;27;43414;-60
2022/04/13 01:54:37;;;;;;;1.38;1.25;;;19.60;46.80;;;;;;5141237;27;43452;-59
2022/04/13 01:57:04;;;;;;;1.65;1.30;;;19.60;46.80;;;;;;5147189;27;43432;-60
2022/04/13 01:59:32;;;;;;;1.52;1.42;;;19.60;46.70;;;;;;5147219;27;44940;-60
2022/04/13 02:02:02;;;;;;;1.10;1.10;;;19.60;46.70;;;;;;5138447;27;43747;-60
2022/04/13 02:04:30;;;;;;;1.60;1.50;;;19.60;47.40;;;;;;5143192;27;43464;-59
2022/04/13 02:06:58;;;;;;;1.67;1.58;;;19.50;46.80;;;;;;5104226;27;43428;-60
2022/04/13 02:09:26;;;;;;;1.50;1.40;;;19.60;46.70;;;;;;5147003;27;44690;-59
2022/04/13 02:11:53;;;;;;;1.38;1.30;;;19.60;46.80;;;;;;5147220;27;44002;-59
2022/04/13 02:14:21;;;;;;;1.60;1.50;;;19.60;46.80;;;;;;5128224;27;43433;-60
2022/04/13 02:16:48;;;;;;;1.25;1.15;;;19.60;46.90;;;;;;5128822;27;43424;-60
2022/04/13 02:19:17;;;;;;;1.35;1.25;;;19.60;46.80;;;;;;5147001;27;45159;-59
2022/04/13 02:21:45;;;;;;;1.73;1.35;;;19.60;46.80;;;;;;5146752;27;43435;-59
2022/04/13 02:24:14;;;;;;;1.45;1.35;;;19.60;46.80;;;;;;5146407;27;43451;-59
2022/04/13 02:26:41;;;;;;;1.60;1.50;;;19.60;46.80;;;;;;5146914;27;43522;-58
2022/04/13 02:29:09;;;;;;;1.15;1.05;;;19.60;46.80;;;;;;5145859;27;44732;-60
2022/04/13 02:31:36;;;;;;;1.67;1.58;;;19.60;46.90;;;;;;5143676;27;43698;-60
2022/04/13 02:34:04;;;;;;;1.65;1.55;;;19.60;46.80;;;;;;5141717;27;43472;-59
2022/04/13 02:36:32;;;;;;;2.28;1.55;;;19.60;46.90;;;;;;5124609;27;43506;-59
2022/04/13 02:39:00;;;;;;;1.50;1.40;;;19.60;47.00;;;;;;5139461;27;43880;-60
2022/04/13 02:41:28;;;;;;;1.50;1.40;;;19.60;47.00;;;;;;5146535;27;43517;-59
2022/04/13 02:43:55;;;;;;;1.60;1.50;;;19.50;47.00;;;;;;5145866;27;43529;-60
2022/04/13 02:46:22;;;;;;;1.80;1.70;;;19.60;47.00;;;;;;5146597;27;43454;-60
2022/04/13 02:48:50;;;;;;;1.70;1.60;;;19.50;47.00;;;;;;5146350;27;43843;-59
2022/04/13 02:51:17;;;;;;;1.60;1.50;;;19.50;47.00;;;;;;5146232;27;43937;-61
2022/04/13 02:53:45;;;;;;;1.88;1.58;;;19.50;46.90;;;;;;5145988;27;43583;-59
2022/04/13 02:56:12;;;;;;;1.73;1.63;;;19.50;47.00;;;;;;5146139;27;43540;-60
2022/04/13 02:58:40;;;;;;;2.08;1.65;;;19.50;47.10;;;;;;5146095;27;44718;-59
2022/04/13 03:01:07;;;;;;;1.80;1.70;;;19.50;47.10;;;;;;5145968;27;43716;-60
2022/04/13 03:03:35;;;;;;;1.70;1.60;;;19.50;47.00;;;;;;5146226;27;43382;-59
2022/04/13 03:06:02;;;;;;;1.80;1.70;;;19.50;47.00;;;;;;5123148;27;43511;-59
2022/04/13 03:08:30;;;;;;;1.70;1.60;;;19.50;46.90;;;;;;5143090;27;43781;-59
2022/04/13 03:10:57;;;;;;;1.63;1.52;;;19.50;47.00;;;;;;5146008;27;43666;-59
2022/04/13 03:13:25;;;;;;;1.77;1.67;;;19.50;47.00;;;;;;5146018;27;43471;-59
2022/04/13 03:15:52;;;;;;;1.75;1.65;;;19.50;46.90;;;;;;5145593;27;43643;-59
2022/04/13 03:18:20;;;;;;;1.60;1.50;;;19.50;47.00;;;;;;5145770;27;44080;-60
2022/04/13 03:20:47;;;;;;;1.65;1.55;;;19.50;47.20;;;;;;5146171;27;44318;-59
2022/04/13 03:23:15;;;;;;;1.52;1.42;;;19.40;47.00;;;;;;5141727;27;43532;-59
2022/04/13 03:25:42;;;;;;;1.58;1.48;;;19.40;47.00;;;;;;5145621;27;43454;-60
2022/04/13 03:28:10;;;;;;;1.80;1.63;;;19.40;47.00;;;;;;5145756;27;44721;-59
2022/04/13 03:30:37;;;;;;;1.65;1.55;;;19.40;47.00;;;;;;5124603;27;43396;-60
2022/04/13 03:33:05;;;;;;;2.47;1.70;;;19.50;47.00;;;;;;5145797;27;43456;-58
2022/04/13 03:35:32;;;;;;;2.03;1.83;;;19.40;46.90;;;;;;5145417;27;43505;-59
2022/04/13 03:38:00;;;;;;;1.52;1.42;;;19.40;46.90;;;;;;5145701;27;43847;-60
2022/04/13 03:40:27;;;;;;;1.63;1.52;;;19.40;47.50;;;;;;5146076;27;43712;-60
2022/04/13 03:42:54;;;;;;;1.70;1.60;;;19.40;46.90;;;;;;5145822;27;43436;-60
2022/04/13 03:45:22;;;;;;;1.60;1.50;;;19.40;46.90;;;;;;5145158;27;43478;-59
2022/04/13 03:47:50;;;;;;;1.83;1.70;;;19.40;46.90;;;;;;5145700;27;43797;-60
2022/04/13 03:50:17;;;;;;;1.77;1.67;;;19.40;47.00;;;;;;5145660;27;43425;-60
2022/04/13 03:52:46;;;;;;;1.90;1.80;;;19.40;46.90;;;;;;5141498;27;43463;-59
2022/04/13 03:55:14;;;;;;;1.70;1.60;;;19.40;46.90;;;;;;5145715;27;43629;-59
2022/04/13 03:57:41;;;;;;;1.70;1.60;;;19.40;46.90;;;;;;5145777;27;44651;-60
2022/04/13 04:00:09;;;;;;;1.65;1.55;;;19.40;47.00;;;;;;5145773;27;43924;-59
2022/04/13 04:02:40;;;;;;;1.95;1.67;;;19.40;47.00;;;;;;5141392;27;43457;-60
2022/04/13 04:05:08;;;;;;;1.60;1.50;;;19.40;46.90;;;;;;5145631;27;43506;-59
2022/04/13 04:07:35;;;;;;;2.25;1.73;;;19.40;46.90;;;;;;5144588;27;44145;-60
2022/04/13 04:10:04;;;;;;;1.73;1.63;;;19.40;46.90;;;;;;5145648;27;43733;-59
2022/04/13 04:12:39;;;;;;;2.00;1.50;;;19.40;47.00;;;;;;5145760;27;43404;-59
2022/04/13 04:15:09;;;;;;;2.03;1.83;;;19.40;46.90;;;;;;5145697;27;43550;-59
2022/04/13 04:17:36;;;;;;;1.70;1.60;;;19.40;46.90;;;;;;5124659;27;44984;-60
2022/04/13 04:20:06;;;;;;;2.58;1.60;;;19.40;46.90;;;;;;5130369;27;43747;-60
2022/04/13 04:22:35;;;;;;;1.90;1.80;;;19.40;47.00;;;;;;5149328;27;43480;-60
2022/04/13 04:25:08;;;;;;;1.67;1.58;;;19.30;47.50;;;;;;5126654;27;43673;-60
2022/04/13 04:27:36;;;;;;;1.63;1.45;;;19.40;47.00;;;;;;5140925;27;45037;-59
2022/04/13 04:30:03;;;;;;;1.80;1.70;;;19.40;46.90;;;;;;5148607;27;43497;-59
2022/04/13 04:32:32;;;;;;;1.70;1.60;;;19.30;47.00;;;;;;5148861;27;43522;-59
2022/04/13 04:34:59;;;;;;;1.98;1.88;;;19.30;47.00;;;;;;5144102;27;43639;-59
2022/04/13 04:37:27;;;;;;;1.42;1.40;;;19.30;47.00;;;;;;5148587;27;44658;-59
2022/04/13 04:39:54;;;;;;;1.65;1.52;;;19.30;47.00;;;;;;5148632;27;43576;-59
2022/04/13 04:42:21;;;;;;;1.67;1.58;;;19.30;47.00;;;;;;5148720;27;44035;-58
2022/04/13 04:44:55;;;;;;;1.90;1.80;;;19.30;47.10;;;;;;5148085;27;43453;-59
2022/04/13 04:47:23;;;;;;;1.80;1.70;;;19.30;47.00;;;;;;5148424;27;43815;-59
2022/04/13 04:49:51;;;;;;;1.90;1.77;;;19.30;47.00;;;;;;5148454;27;43718;-60
2022/04/13 04:52:19;;;;;;;1.73;1.63;;;19.30;47.00;;;;;;5147342;27;43553;-59
2022/04/13 04:54:46;;;;;;;1.63;1.52;;;19.30;47.00;;;;;;5147964;27;43630;-60
2022/04/13 04:57:14;;;;;;;1.70;1.60;;;19.30;47.00;;;;;;5147904;27;44681;-60
2022/04/13 04:59:41;;;;;;;1.67;1.58;;;19.20;47.00;;;;;;5148353;27;43861;-59
2022/04/13 05:02:08;;;;;;;1.90;1.80;;;19.30;47.00;;;;;;5125921;27;43459;-60
2022/04/13 05:04:36;;;;;;;1.70;1.60;;;19.20;47.00;;;;;;5144919;27;43631;-59
2022/04/13 05:07:04;;;;;;;1.60;1.50;;;19.20;47.00;;;;;;5148210;27;45275;-59
2022/04/13 05:09:31;;;;;;;2.03;1.83;;;19.20;47.00;;;;;;5148321;27;43512;-59
2022/04/13 05:12:02;;;;;;;1.60;1.50;;;19.20;47.00;;;;;;5148416;27;44035;-60
2022/04/13 05:14:29;;;;;;;1.80;1.70;;;19.20;47.00;;;;;;5147813;27;43443;-59
2022/04/13 05:16:57;;;;;;;1.83;1.73;;;19.20;47.00;;;;;;5127661;27;43786;-59
2022/04/13 05:19:28;;;;;;;1.60;1.50;;;19.20;47.00;;;;;;5148021;27;43464;-59
2022/04/13 05:21:56;;;;;;;1.70;1.60;;;19.20;47.00;;;;;;5148248;27;43448;-60
2022/04/13 05:24:24;;;;;;;1.60;1.50;;;19.20;47.00;;;;;;5147695;27;43611;-60
2022/04/13 05:26:51;;;;;;;1.65;1.55;;;19.20;47.10;;;;;;5147675;27;44676;-59
2022/04/13 05:29:21;;;;;;;1.73;1.63;;;19.20;47.00;;;;;;5147073;27;43972;-60
2022/04/13 05:31:48;;;;;;;1.80;1.70;;;19.20;47.00;;;;;;5147980;27;43517;-60
2022/04/13 05:34:16;;;;;;;1.75;1.65;;;19.20;47.10;;;;;;5144822;27;43466;-59
2022/04/13 05:36:43;;;;;;;1.77;1.67;;;19.10;47.00;;;;;;5146683;27;43812;-60
2022/04/13 05:39:11;;;;;;;1.70;1.60;;;19.20;47.10;;;;;;5146684;27;43489;-59
2022/04/13 05:41:39;;;;;;;1.58;1.48;;;19.10;47.10;;;;;;5147836;27;43556;-60
2022/04/13 05:44:07;;;;;;;1.70;1.48;;;19.10;47.20;;;;;;5128751;27;43535;-60
2022/04/13 05:46:34;;;;;;;2.08;1.65;;;19.20;47.20;;;;;;5147403;27;43796;-60
2022/04/13 05:49:02;;;;;;;1.65;1.55;;;19.10;47.10;;;;;;5147362;27;44088;-60
2022/04/13 05:51:29;;;;;;;2.10;1.80;;;19.10;47.20;;;;;;5147361;27;43550;-61
2022/04/13 05:53:57;;;;;;;1.65;1.55;;;19.10;47.20;;;;;;5143218;27;43458;-59
2022/04/13 05:56:24;;;;;;;1.60;1.50;;;19.10;47.20;;;;;;5127877;27;45969;-59
2022/04/13 05:58:55;;;;;;;1.70;1.60;;;19.10;47.20;;;;;;5129689;27;43511;-60
2022/04/13 06:01:23;;;;;;;2.42;1.50;;;19.10;47.30;;;;;;5147459;27;43428;-60
2022/04/13 06:03:50;;;;;;;1.95;1.50;;;19.10;47.30;;;;;;5147078;27;43511;-58
2022/04/13 06:06:18;;;;;;;2.42;1.67;;;19.10;47.30;;;;;;5146915;27;44703;-61
2022/04/13 06:08:45;;;;;;;1.80;1.70;;;19.10;47.30;;;;;;5147020;27;43748;-60
2022/04/13 06:11:13;;;;;;;2.55;1.80;;;19.10;47.40;;;;;;5147211;27;43389;-60
2022/04/13 06:13:41;;;;;;;1.60;1.50;;;19.10;47.40;;;;;;5147040;27;43516;-60
2022/04/13 06:16:09;;;;;;;1.52;1.42;;;19.10;47.40;;;;;;5147002;27;44669;-61
2022/04/13 06:18:36;;;;;;;1.80;1.67;;;19.10;47.40;;;;;;5146690;27;43544;-59
2022/04/13 06:21:04;;;;;;;1.90;1.73;;;19.10;47.40;;;;;;5147356;27;43486;-59
2022/04/13 06:23:34;;;;;;;2.30;1.63;;;19.10;47.40;;;;;;5142814;27;43527;-60
2022/04/13 06:26:02;;;;;;;1.60;1.50;;;19.10;47.40;;;;;;5123987;27;43863;-59
2022/04/13 06:28:30;;;;;;;2.72;1.80;;;19.10;47.40;;;;;;5146678;27;43467;-59
2022/04/13 06:30:58;;;;;;;1.80;1.70;;;19.10;47.40;;;;;;5146872;27;43417;-58
2022/04/13 06:33:25;;;;;;;3.08;1.60;;;19.10;47.30;;;;;;5146868;27;43438;-59
2022/04/13 06:35:53;;;;;;;2.15;2.03;;;19.10;47.70;;;;;;5142433;27;43799;-59
2022/04/13 06:38:20;;;;;;;3.90;3.20;;;19.00;47.70;;;;;;5146246;27;43496;-59
2022/04/13 06:40:48;;;;;;;5.00;3.45;;;19.10;47.60;;;;;;5145455;27;43567;-60
2022/04/13 06:43:15;;;;;;;4.95;3.50;;;19.10;47.70;;;;;;5146591;27;43485;-59
2022/04/13 06:45:43;;;;;;;6.43;3.03;;;19.10;47.70;;;;;;5145555;27;45087;-60
2022/04/13 06:48:10;;;;;;;3.45;3.10;;;19.20;47.90;;;;;;5146151;27;43484;-60
2022/04/13 06:50:38;;;;;;;4.53;2.80;;;19.20;47.80;;;;;;5146624;27;43449;-60
2022/04/13 06:53:05;;;;;;;3.70;2.72;;;19.30;47.40;;;;;;5146478;27;43621;-60
2022/04/13 06:55:33;;;;;;;4.20;2.85;;;19.30;47.50;;;;;;5145988;27;43799;-60
2022/04/13 06:58:03;;;;;;;3.80;2.80;;;19.40;47.50;;;;;;5130653;27;43500;-60
2022/04/13 07:00:31;;;;;;;3.72;2.75;;;19.50;47.70;;;;;;5106453;27;43647;-61
2022/04/13 07:02:58;;;;;;;3.47;3.00;;;19.60;47.70;;;;;;5133104;27;43460;-60
2022/04/13 07:05:41;;;;;;;3.97;2.90;;;19.70;47.80;;;;;;5140237;27;44231;-59
2022/04/13 07:08:08;;;;;;;4.35;2.65;;;19.80;48.20;;;;;;5128304;27;43401;-60
2022/04/13 07:10:36;;;;;;;2.60;2.40;;;19.90;47.60;;;;;;5132847;27;43474;-61
2022/04/13 07:13:10;;;;;;;2.65;2.45;;;20.00;47.50;;;;;;4211760;27;10000503;-60
2022/04/13 07:16:12;;;;;;;2.90;2.60;;;20.20;47.40;;;;;;5087932;27;45347;-60
2022/04/13 07:18:40;;;;;;;;;;;20.40;47.40;;;;;;5082274;27;43609;-60
2022/04/13 07:21:07;;;;;;;3.33;2.30;;;20.50;47.30;;;;;;5082088;27;43486;-60
2022/04/13 07:23:35;;;;;;;7.22;2.75;;;20.60;47.20;;;;;;5080911;27;44841;-59
2022/04/13 07:26:02;;;;;;;2.60;2.20;;;20.70;47.40;;;;;;5083100;27;43466;-59
2022/04/13 07:28:30;;;;;;;5.50;2.33;;;20.80;47.10;;;;;;5083293;27;43529;-59
2022/04/13 07:30:58;;;;;;;2.50;2.30;;;21.00;47.10;;;;;;5084999;27;44150;-59
2022/04/13 07:33:26;;;;;;;4.35;2.40;;;21.10;46.80;;;;;;5078584;28;43978;-60
2022/04/13 07:35:53;;;;;;;4.07;2.50;;;21.20;46.70;;;;;;5082081;28;43702;-60
2022/04/13 07:38:21;;;;;;;4.07;2.30;;;21.30;46.70;;;;;;5083126;27;43481;-60
2022/04/13 07:40:48;;;;;;;3.63;2.35;;;21.40;46.40;;;;;;5082413;27;43498;-60
2022/04/13 07:43:16;;;;;;;4.97;2.28;;;21.50;46.40;;;;;;5078879;28;44462;-61
2022/04/13 07:45:44;;;;;;;3.70;2.30;;;21.60;46.30;;;;;;5084472;27;43725;-60
2022/04/13 07:48:11;;;;;;;3.78;2.40;;;21.70;46.30;;;;;;5066124;27;43567;-60
2022/04/13 07:50:39;;;;;;;3.78;1.92;;;21.80;46.20;;;;;;5087145;27;43455;-60
2022/04/13 07:53:06;;;;;;;4.22;2.20;;;21.90;45.90;;;;;;5086071;27;44688;-60
2022/04/13 07:55:34;;;;;;;3.58;2.08;;;22.00;45.80;;;;;;5085946;28;43497;-61
2022/04/13 07:58:01;;;;;;;2.53;2.00;;;22.10;45.80;;;;;;5085863;27;43446;-59
2022/04/13 08:00:30;;;;;;;2.63;2.08;;;22.20;45.70;;;;;;5086606;27;43534;-61
2022/04/13 08:02:57;;;;;;;3.22;1.98;;;22.30;45.60;;;;;;5088787;27;44157;-61
2022/04/13 08:05:25;;;;;;;3.33;2.00;;;22.30;45.60;;;;;;5088252;27;44081;-61
2022/04/13 08:07:53;;;;;;;2.80;2.10;;;22.30;45.60;;;;;;5087050;27;43504;-61
2022/04/13 08:10:20;;;;;;;3.30;1.90;;;22.40;45.60;;;;;;5078411;27;43585;-61
2022/04/13 08:12:48;;;;;;;2.58;1.85;;;22.40;45.50;;;;;;5088866;27;44660;-65
2022/04/13 08:15:15;;;;;;;2.65;1.70;;;22.40;45.70;;;;;;5089484;27;43768;-64
2022/04/13 08:17:43;;;;;;;2.75;1.90;;;22.50;45.50;;;;;;5071313;28;43430;-60
2022/04/13 08:20:13;;;;;;;2.90;1.88;;;22.50;45.40;;;;;;5086484;27;43564;-61
2022/04/13 08:22:42;;;;;;;2.40;1.65;;;22.50;45.40;;;;;;5088857;27;43812;-61
2022/04/13 08:25:10;;;;;;;3.53;2.10;;;22.60;45.50;;;;;;5090628;27;43499;-61
2022/04/13 08:27:43;;;;;;;4.95;2.20;;;22.60;45.50;;;;;;5084477;27;43492;-61
2022/04/13 08:30:11;;;;;;;2.85;1.90;;;22.70;45.40;;;;;;5089506;27;43458;-63
2022/04/13 08:32:40;;;;;;;3.65;1.80;;;22.90;45.40;;;;;;5087086;27;44691;-62
2022/04/13 08:35:10;;;;;;;3.08;1.85;;;23.10;45.10;;;;;;5086001;27;43785;-62
2022/04/13 08:37:38;;;;;;;4.65;2.20;;;23.20;44.80;;;;;;5081534;28;43630;-62
2022/04/13 08:40:09;;;;;;;5.18;1.98;;;23.20;44.80;;;;;;5087287;27;43471;-62
2022/04/13 08:43:12;;;;;;;5.45;2.00;;;23.40;44.60;;;;;;5087745;27;44654;-62
2022/04/13 08:45:55;;;;;;;4.57;2.03;;;23.50;44.40;;;;;;5064341;27;43554;-62
2022/04/13 08:48:24;;;;;;;3.00;1.92;;;23.50;44.30;;;;;;5085633;27;43539;-61
2022/04/13 08:51:03;;;;;;;2.80;1.80;;;23.60;44.40;;;;;;5075644;27;43629;-62
2022/04/13 08:53:31;;;;;;;2.58;2.10;;;23.60;44.30;;;;;;5082200;27;44733;-62
2022/04/13 08:56:00;;;;;;;4.88;2.05;;;23.60;44.20;;;;;;5102498;27;43560;-62
2022/04/13 08:59:04;;;;;;;3.08;2.10;;;23.70;44.30;;;;;;5084089;27;43469;-63
2022/04/13 09:01:41;;;;;;;2.65;1.73;;;23.70;45.00;;;;;;5084700;27;43521;-61
2022/04/13 09:04:12;;;;;;;3.42;2.40;;;23.60;44.40;;;;;;5083826;27;44931;-62
2022/04/13 09:06:42;;;;;;;3.33;2.20;;;23.60;44.40;;;;;;5085336;27;43407;-61
2022/04/13 09:09:15;;;;;;;2.67;1.75;;;23.60;44.50;;;;;;5087562;27;44316;-61
2022/04/13 09:11:48;;;;;;;3.92;2.22;;;23.60;44.70;;;;;;5080304;27;43554;-62
2022/04/13 09:14:17;;;;;;;3.15;1.98;;;23.50;44.60;;;;;;5090513;27;44186;-62
2022/04/13 09:16:44;;;;;;;3.42;2.30;;;23.50;44.60;;;;;;5086212;27;43502;-62
2022/04/13 09:19:12;;;;;;;4.40;2.50;;;23.50;44.80;;;;;;5089891;27;43516;-61
2022/04/13 09:21:41;;;;;;;3.78;2.45;;;23.40;44.70;;;;;;5080778;27;43489;-61
2022/04/13 09:24:09;;;;;;;4.55;2.47;;;23.40;44.80;;;;;;5086186;27;44617;-61
2022/04/13 09:26:38;;;;;;;5.28;2.60;;;23.40;45.10;;;;;;5083723;27;43461;-63
2022/04/13 09:29:11;;;;;;;2.80;2.10;;;23.40;45.20;;;;;;5085964;27;43450;-61
2022/04/13 09:31:39;;;;;;;5.03;2.45;;;23.40;45.90;;;;;;5086330;27;43484;-62
2022/04/13 09:34:08;;;;;;;4.43;2.50;;;23.40;45.10;;;;;;5079865;27;43784;-61
2022/04/13 09:36:36;;;;;;;7.00;2.80;;;23.40;45.20;;;;;;5085442;27;43449;-61
2022/04/13 09:39:04;;;;;;;5.85;2.70;;;23.40;45.40;;;;;;5086210;27;43469;-63
2022/04/13 09:41:37;;;;;;;3.92;2.33;;;23.40;45.40;;;;;;5092545;27;43571;-61
2022/04/13 09:44:15;;;;;;;3.22;2.17;;;23.40;45.40;;;;;;5082410;27;44701;-61
2022/04/13 09:46:43;;;;;;;5.18;2.20;;;23.40;45.40;;;;;;5002862;28;43969;-61
2022/04/13 09:49:12;;;;;;;6.15;2.40;;;23.40;46.00;;;;;;5053709;27;43516;-62
2022/04/13 09:51:41;;;;;;;4.45;2.67;;;23.40;45.20;;;;;;5030301;28;43487;-62
2022/04/13 09:54:12;;;;;;;3.90;2.50;;;23.40;45.40;;;;;;5019411;28;43985;-61
2022/04/13 09:56:47;;;;;;;4.85;2.60;;;23.30;45.40;;;;;;5006968;28;43471;-61
2022/04/13 09:59:31;;;;;;;5.03;2.60;;;23.30;45.40;;;;;;5010133;28;43465;-61
2022/04/13 10:01:59;;;;;;;7.28;2.67;;;23.30;45.40;;;;;;4996993;28;43496;-61
2022/04/13 10:04:29;;;;;;;5.97;2.63;;;23.30;45.40;;;;;;5069122;27;43788;-61
2022/04/13 10:07:18;;;;;;;4.07;2.38;;;23.30;45.70;;;;;;5013936;28;43461;-62
2022/04/13 10:09:47;;;;;;;6.03;2.88;;;23.30;45.60;;;;;;5005962;28;43672;-61
2022/04/13 10:12:15;;;;;;;5.28;2.90;;;23.40;45.70;;;;;;5044292;28;43650;-61
2022/04/13 10:14:44;;;;;;;3.30;2.38;;;23.40;45.70;;;;;;5015420;27;43889;-61
2022/04/13 10:17:13;;;;;;;4.60;2.60;;;23.40;45.60;;;;;;5021652;28;43626;-62
2022/04/13 10:19:41;;;;;;;4.10;2.50;;;23.50;45.80;;;;;;5009888;27;43514;-61
2022/04/13 10:22:09;;;;;;;4.85;2.58;;;23.50;45.80;;;;;;5007249;28;43668;-62
2022/04/13 10:24:39;;;;;;;4.40;2.70;;;23.50;45.80;;;;;;5002458;28;44783;-61
2022/04/13 10:27:08;;;;;;;5.28;2.95;;;23.50;45.70;;;;;;5061666;27;44108;-62
2022/04/13 10:29:38;;;;;;;3.08;2.30;;;23.50;45.80;;;;;;5000079;28;43423;-62
2022/04/13 10:32:13;;;;;;;4.15;2.28;;;23.50;45.70;;;;;;4990872;28;43582;-62
2022/04/13 10:34:43;;;;;;;7.25;2.70;;;23.50;45.80;;;;;;5011584;28;43758;-62
2022/04/13 10:37:16;;;;;;;3.53;2.47;;;23.50;45.90;;;;;;5028806;27;43468;-62
2022/04/13 10:39:45;;;;;;;2.70;2.08;;;23.50;46.40;;;;;;5056148;28;44112;-62
2022/04/13 10:42:15;;;;;;;3.10;1.70;;;23.50;45.80;;;;;;5013396;28;43587;-61
2022/04/13 10:44:52;;;;;;;4.93;2.30;;;23.50;46.20;;;;;;4998908;28;44056;-61
2022/04/13 10:47:41;;;;;;;3.35;2.22;;;23.50;46.00;;;;;;4983580;28;43988;-61
2022/04/13 10:50:10;;;;;;;2.65;1.90;;;23.50;45.60;;;;;;4979047;28;43511;-61
2022/04/13 10:52:46;;;;;;;3.53;1.85;;;23.50;46.00;;;;;;4978114;28;43693;-62
2022/04/13 10:55:14;;;;;;;4.10;2.03;;;23.50;45.90;;;;;;4982176;28;44210;-61
2022/04/13 10:57:49;;;;;;;4.43;1.65;;;23.50;45.90;;;;;;5017246;28;44039;-61
2022/04/13 11:00:18;;;;;;;2.67;1.67;;;23.50;45.90;;;;;;4980157;28;43559;-62
2022/04/13 11:02:52;;;;;;;5.10;1.98;;;23.50;45.70;;;;;;4982820;28;43599;-61
2022/04/13 11:05:25;;;;;;;2.72;1.77;;;23.50;45.90;;;;;;4980002;28;44919;-60
2022/04/13 11:08:06;;;;;;;2.90;2.10;;;23.50;46.00;;;;;;4977858;28;44147;-60
2022/04/13 11:10:35;;;;;;;;;;;23.50;46.20;;;;;;4979668;28;43501;-61
2022/04/13 11:13:03;;;;;;;2.28;2.03;;;23.50;46.20;;;;;;4971843;28;43621;-60
2022/04/13 11:15:39;;;;;;;4.53;1.98;;;23.40;46.20;;;;;;4987068;28;44137;-60
2022/04/13 11:18:09;;;;;;;3.65;2.08;;;23.40;46.20;;;;;;4977835;28;43439;-60
2022/04/13 11:20:37;;;;;;;2.63;1.77;;;23.40;46.30;;;;;;4977385;28;43494;-60
2022/04/13 11:23:11;;;;;;;2.63;1.88;;;23.40;46.40;;;;;;5040167;28;43570;-60
2022/04/13 11:25:45;;;;;;;4.22;1.92;;;23.40;46.20;;;;;;4979970;28;44969;-60
2022/04/13 11:28:30;;;;;;;2.95;1.85;;;23.40;46.40;;;;;;4976177;28;45323;-60
2022/04/13 11:31:11;;;;;;;2.58;1.90;;;23.40;46.40;;;;;;4982634;27;43459;-60
2022/04/13 11:33:57;;;;;;;3.15;1.80;;;23.30;46.50;;;;;;4979214;28;43538;-60
2022/04/13 11:36:30;;;;;;;3.00;1.90;;;23.30;46.30;;;;;;4980537;28;43797;-60
2022/04/13 11:39:13;;;;;;;3.03;1.75;;;23.30;46.50;;;;;;4982480;28;43502;-61
2022/04/13 11:41:51;;;;;;;4.22;1.67;;;23.20;46.50;;;;;;4984188;28;43486;-61
2022/04/13 11:44:19;;;;;;;2.80;1.90;;;23.20;46.80;;;;;;4994355;27;43561;-61
2022/04/13 11:46:47;;;;;;;2.95;1.88;;;23.10;46.60;;;;;;5082809;27;44013;-60
2022/04/13 11:49:14;;;;;;;4.13;1.80;;;23.10;46.60;;;;;;5083597;27;44002;-60
2022/04/13 11:51:42;;;;;;;4.00;1.95;;;23.10;46.70;;;;;;5066159;28;43493;-60
2022/04/13 11:54:11;;;;;;;2.92;1.73;;;23.10;46.80;;;;;;5085334;27;43572;-61
2022/04/13 11:56:50;;;;;;;2.92;2.05;;;23.00;46.80;;;;;;5067668;27;44239;-60
2022/04/13 11:59:50;;;;;;;2.65;1.90;;;23.00;46.70;;;;;;5086373;27;44272;-60
2022/04/13 12:02:17;;;;;;;4.47;2.13;;;23.00;46.80;;;;;;5088450;27;43508;-60
2022/04/13 12:04:49;;;;;;;6.13;2.10;;;22.90;46.90;;;;;;5089432;27;43647;-60
2022/04/13 12:07:17;;;;;;;3.65;2.20;;;22.90;46.80;;;;;;5079883;27;43771;-60
2022/04/13 12:09:45;;;;;;;3.70;2.00;;;22.90;47.00;;;;;;5082627;27;43958;-61
2022/04/13 12:12:17;;;;;;;2.10;1.60;;;22.80;46.90;;;;;;5082414;27;43477;-60
2022/04/13 12:14:54;;;;;;;3.50;1.58;;;22.80;46.90;;;;;;5077973;27;43613;-60
2022/04/13 12:17:21;;;;;;;4.82;2.00;;;22.80;47.00;;;;;;5079269;27;44041;-60
2022/04/13 12:19:49;;;;;;;3.20;2.00;;;22.80;47.30;;;;;;5084258;27;44019;-60
2022/04/13 12:22:18;;;;;;;2.15;1.55;;;22.70;47.10;;;;;;5082542;27;43440;-60
2022/04/13 12:25:19;;;;;;;2.58;1.77;;;22.70;47.30;;;;;;5083236;27;43582;-61
2022/04/13 12:28:03;;;;;;;3.20;1.67;;;22.70;47.10;;;;;;5051542;28;44720;-60
2022/04/13 12:30:34;;;;;;;3.30;1.65;;;22.70;47.20;;;;;;5060081;28;43545;-60
2022/04/13 12:33:21;;;;;;;3.42;1.90;;;22.60;47.50;;;;;;5079838;27;43555;-59
2022/04/13 12:36:01;;;;;;;3.42;1.70;;;22.60;47.50;;;;;;5080292;27;43514;-60
2022/04/13 12:38:55;;;;;;;3.00;1.77;;;22.60;47.40;;;;;;5080527;27;44978;-60
2022/04/13 12:41:24;;;;;;;5.00;1.98;;;22.50;47.60;;;;;;5089581;27;43923;-60
2022/04/13 12:43:56;;;;;;;3.28;1.80;;;22.50;47.70;;;;;;5087278;27;43391;-61
2022/04/13 12:46:25;;;;;;;3.85;1.88;;;22.50;47.90;;;;;;5087267;27;43496;-60
2022/04/13 12:49:20;;;;;;;4.13;2.05;;;22.50;47.90;;;;;;5083192;27;44680;-61
2022/04/13 12:51:49;;;;;;;3.78;1.70;;;22.50;47.90;;;;;;5066725;27;43482;-60
2022/04/13 12:54:18;;;;;;;2.72;1.50;;;22.50;47.60;;;;;;5082021;28;43593;-60
2022/04/13 12:56:47;;;;;;;3.70;1.95;;;22.50;47.80;;;;;;5081695;27;43555;-60
2022/04/13 12:59:20;;;;;;;3.75;1.70;;;22.50;47.90;;;;;;5083246;27;44026;-60
2022/04/13 13:01:49;;;;;;;2.90;1.63;;;22.50;47.60;;;;;;5087162;27;43473;-60